Time;durP1;ratioP1;P1;durP2;ratioP2;P2;SDS_P1;SDS_P2;PMS_P1;PMS_P2;Temp;Humidity;BMP_temperature;BMP_pressure;BME280_temperature;BME280_humidity;BME280_pressure;Samples;Min_cycle;Max_cycle;Signal;HPM_P1;HPM_P2
2022/03/18 00:01:59;;;;;;;;;;;2.90;99.90;;;;;;5042220;28;19933;-76
2022/03/18 00:04:26;;;;;;;;;;;2.90;99.90;;;;;;5046042;28;19925;-76
2022/03/18 00:06:53;;;;;;;;;;;2.80;99.90;;;;;;5039449;28;19931;-76
2022/03/18 00:09:19;;;;;;;;;;;2.80;99.90;;;;;;5046754;28;19928;-75
2022/03/18 00:11:46;;;;;;;;;;;2.80;99.90;;;;;;5046074;28;20322;-75
2022/03/18 00:14:14;;;;;;;;;;;2.80;99.90;;;;;;5039874;28;20471;-75
2022/03/18 00:16:41;;;;;;;;;;;2.80;99.90;;;;;;5046278;28;20348;-76
2022/03/18 00:19:08;;;;;;;;;;;2.70;99.90;;;;;;5041074;28;19968;-74
2022/03/18 00:21:34;;;;;;;;;;;2.70;99.90;;;;;;5043312;28;19925;-75
2022/03/18 00:24:01;;;;;;;;;;;2.80;99.90;;;;;;5042988;28;20384;-75
2022/03/18 00:26:28;;;;;;;;;;;2.80;99.90;;;;;;5039989;28;19925;-75
2022/03/18 00:28:55;;;;;;;;;;;2.80;99.90;;;;;;5047932;28;20019;-75
2022/03/18 00:31:23;;;;;;;;;;;2.70;99.90;;;;;;5044178;28;20402;-75
2022/03/18 00:33:49;;;;;;;;;;;2.60;99.90;;;;;;5043338;28;19924;-75
2022/03/18 00:36:16;;;;;;;;;;;2.50;99.90;;;;;;5044203;28;19925;-75
2022/03/18 00:38:43;;;;;;;;;;;2.50;99.90;;;;;;5037377;28;19933;-75
2022/03/18 00:41:09;;;;;;;;;;;2.40;99.90;;;;;;5040296;28;19932;-75
2022/03/18 00:43:36;;;;;;;;;;;2.30;99.90;;;;;;5046381;28;19929;-75
2022/03/18 00:46:03;;;;;;;;;;;2.30;99.90;;;;;;5039927;28;19929;-75
2022/03/18 00:53:59;;;;;;;;;;;2.30;99.90;;;;;;5043420;28;20029;-76
2022/03/18 00:56:26;;;;;;;;;;;2.30;99.90;;;;;;5051544;28;19988;-77
2022/03/18 00:58:52;;;;;;;;;;;2.30;99.90;;;;;;5054415;28;20326;-77
2022/03/18 01:01:19;;;;;;;;;;;2.20;99.90;;;;;;5049852;28;20016;-77
2022/03/18 01:03:47;;;;;;;;;;;2.10;99.90;;;;;;5044556;28;19933;-76
2022/03/18 01:06:13;;;;;;;;;;;2.10;99.90;;;;;;5048998;28;19925;-76
2022/03/18 01:08:40;;;;;;;;;;;2.00;99.90;;;;;;5052880;28;20362;-76
2022/03/18 01:11:07;;;;;;;;;;;2.10;99.90;;;;;;5049504;28;19929;-77
2022/03/18 01:13:33;;;;;;;;;;;2.10;99.90;;;;;;5046649;28;19925;-76
2022/03/18 01:16:00;;;;;;;;;;;2.20;99.90;;;;;;5042975;28;19925;-76
2022/03/18 01:18:27;;;;;;;;;;;2.10;99.90;;;;;;5042295;28;19932;-77
2022/03/18 01:20:55;;;;;;;;;;;2.10;99.90;;;;;;5045059;28;19976;-76
2022/03/18 01:23:21;;;;;;;;;;;2.10;99.90;;;;;;5044585;28;20287;-75
2022/03/18 01:25:48;;;;;;;;;;;2.10;99.90;;;;;;5042000;28;20486;-76
2022/03/18 01:28:15;;;;;;;;;;;2.10;99.90;;;;;;5043809;28;19925;-75
2022/03/18 01:30:42;;;;;;;;;;;2.10;99.90;;;;;;5040883;28;20441;-75
2022/03/18 01:33:09;;;;;;;;;;;2.10;99.90;;;;;;5047000;28;19925;-74
2022/03/18 01:35:37;;;;;;;;;;;2.20;99.90;;;;;;5038754;28;20318;-75
2022/03/18 01:38:05;;;;;;;;;;;2.30;99.90;;;;;;5041031;28;20518;-75
2022/03/18 01:40:32;;;;;;;;;;;2.10;99.90;;;;;;5051648;28;19931;-75
2022/03/18 01:42:58;;;;;;;;;;;2.20;99.90;;;;;;5048316;28;19924;-75
2022/03/18 01:45:25;;;;;;;;;;;2.10;99.90;;;;;;5052481;28;20010;-75
2022/03/18 01:47:52;;;;;;;;;;;2.20;99.90;;;;;;5053830;28;19925;-76
2022/03/18 01:50:18;;;;;;;;;;;3.30;99.90;;;;;;5049882;28;19925;-76
2022/03/18 01:52:46;;;;;;;;;;;2.10;99.90;;;;;;5048967;28;19931;-74
2022/03/18 01:55:14;;;;;;;;;;;2.10;99.90;;;;;;5048701;28;19932;-75
2022/03/18 01:57:40;;;;;;;;;;;2.00;99.90;;;;;;5046280;28;20019;-75
2022/03/18 02:00:07;;;;;;;;;;;2.00;99.90;;;;;;5050726;28;19979;-76
2022/03/18 02:02:34;;;;;;;;;;;1.90;99.90;;;;;;5047263;28;19924;-76
2022/03/18 02:05:01;;;;;;;;;;;2.00;99.90;;;;;;5051124;28;19924;-77
2022/03/18 02:07:27;;;;;;;;;;;1.90;99.90;;;;;;5051160;28;19931;-76
2022/03/18 02:09:54;;;;;;;;;;;2.10;99.90;;;;;;5046623;28;19947;-76
2022/03/18 02:12:22;;;;;;;;;;;1.80;99.90;;;;;;5053443;28;20735;-76
2022/03/18 02:14:48;;;;;;;;;;;1.80;99.90;;;;;;5050106;28;19932;-76
2022/03/18 02:17:16;;;;;;;;;;;1.80;99.90;;;;;;5048140;28;19943;-77
2022/03/18 02:19:43;;;;;;;;;;;1.90;99.90;;;;;;5050009;28;19986;-76
2022/03/18 02:22:10;;;;;;;;;;;1.80;99.90;;;;;;5049668;28;19955;-76
2022/03/18 02:24:39;;;;;;;;;;;1.80;99.90;;;;;;5052865;28;19932;-77
2022/03/18 02:27:06;;;;;;;;;;;1.70;99.90;;;;;;5053253;28;19968;-75
2022/03/18 02:29:33;;;;;;;;;;;1.70;99.90;;;;;;5049077;28;19935;-75
2022/03/18 02:32:00;;;;;;;;;;;1.60;99.90;;;;;;5050455;28;20012;-75
2022/03/18 02:34:27;;;;;;;;;;;1.60;99.90;;;;;;5052185;28;19951;-76
2022/03/18 02:36:55;;;;;;;;;;;1.50;99.90;;;;;;5045265;28;20358;-76
2022/03/18 02:39:22;;;;;;;;;;;1.40;99.90;;;;;;5041088;28;20407;-76
2022/03/18 02:41:50;;;;;;;;;;;1.40;99.90;;;;;;5044643;28;19931;-75
2022/03/18 02:44:17;;;;;;;;;;;1.40;99.90;;;;;;5042170;28;20046;-75
2022/03/18 02:46:44;;;;;;;;;;;1.40;99.90;;;;;;5043101;28;20370;-75
2022/03/18 02:49:10;;;;;;;;;;;1.40;99.90;;;;;;5047119;28;19932;-74
2022/03/18 02:51:37;;;;;;;;;;;1.30;99.90;;;;;;5038963;28;20379;-75
2022/03/18 02:54:04;;;;;;;;;;;1.30;99.90;;;;;;5039919;28;19995;-74
2022/03/18 02:56:31;;;;;;;;;;;1.30;99.90;;;;;;5034926;28;20020;-74
2022/03/18 02:59:00;;;;;;;;;;;1.30;99.90;;;;;;5041068;28;19928;-75
2022/03/18 03:01:27;;;;;;;;;;;1.20;99.90;;;;;;5050068;28;20520;-76
2022/03/18 03:03:54;;;;;;;;;;;1.10;99.90;;;;;;5043874;28;19936;-75
2022/03/18 03:09:04;;;;;;;;;;;1.10;99.90;;;;;;5040389;28;20414;-75
2022/03/18 03:11:31;;;;;;;;;;;1.10;99.90;;;;;;5040347;28;20435;-75
2022/03/18 03:13:59;;;;;;;;;;;1.10;99.90;;;;;;5044189;28;20376;-75
2022/03/18 03:16:26;;;;;;;;;;;1.20;99.90;;;;;;5044866;28;19935;-75
2022/03/18 03:18:53;;;;;;;;;;;1.20;99.90;;;;;;5054357;28;19935;-75
2022/03/18 03:21:19;;;;;;;;;;;1.20;99.90;;;;;;5049050;28;19939;-75
2022/03/18 03:23:47;;;;;;;;;;;1.20;99.90;;;;;;5046582;28;19936;-76
2022/03/18 03:26:14;;;;;;;;;;;1.20;99.90;;;;;;5047849;28;19931;-76
2022/03/18 03:28:42;;;;;;;;;;;1.30;99.90;;;;;;5044184;28;19933;-76
2022/03/18 03:31:11;;;;;;;;;;;1.30;99.90;;;;;;5052411;28;19940;-76
2022/03/18 03:33:37;;;;;;;;;;;1.30;99.90;;;;;;5057248;28;20461;-77
2022/03/18 03:36:04;;;;;;;;;;;1.30;99.90;;;;;;5046697;28;19925;-77
2022/03/18 03:38:31;;;;;;;;;;;1.20;99.90;;;;;;5052753;28;19943;-76
2022/03/18 03:40:57;;;;;;;;;;;1.20;99.90;;;;;;5054297;28;20019;-77
2022/03/18 03:43:24;;;;;;;;;;;1.20;99.90;;;;;;5050504;28;20404;-76
2022/03/18 03:45:51;;;;;;;;;;;1.20;99.90;;;;;;5053050;28;20095;-77
2022/03/18 03:48:19;;;;;;;;;;;1.20;99.90;;;;;;5054102;28;19933;-76
2022/03/18 03:50:45;;;;;;;;;;;1.30;99.90;;;;;;5054527;28;19933;-77
2022/03/18 03:53:12;;;;;;;;;;;1.30;99.90;;;;;;5055280;28;19928;-77
2022/03/18 03:55:40;;;;;;;;;;;1.20;99.90;;;;;;5051262;28;19925;-78
2022/03/18 03:58:07;;;;;;;;;;;1.20;99.90;;;;;;5054429;28;22242;-77
2022/03/18 04:00:34;;;;;;;;;;;1.10;99.90;;;;;;5052895;28;19944;-76
2022/03/18 04:03:02;;;;;;;;;;;1.10;99.90;;;;;;5041527;28;20304;-76
2022/03/18 04:05:30;;;;;;;;;;;1.00;99.90;;;;;;5044357;28;20310;-76
2022/03/18 04:07:56;;;;;;;;;;;1.00;99.90;;;;;;5042814;28;19975;-76
2022/03/18 04:10:23;;;;;;;;;;;1.00;99.90;;;;;;5049189;28;20460;-76
2022/03/18 04:12:50;;;;;;;;;;;1.00;99.90;;;;;;5048552;28;20083;-76
2022/03/18 04:15:17;;;;;;;;;;;1.00;99.90;;;;;;5044688;28;19929;-76
2022/03/18 04:17:44;;;;;;;;;;;0.90;99.90;;;;;;5043207;28;19929;-76
2022/03/18 04:20:12;;;;;;;;;;;0.80;99.90;;;;;;5043756;28;19932;-76
2022/03/18 04:22:41;;;;;;;;;;;0.80;99.90;;;;;;5039789;28;20375;-75
2022/03/18 04:25:08;;;;;;;;;;;0.80;99.90;;;;;;5047227;28;19932;-75
2022/03/18 04:27:34;;;;;;;;;;;0.80;99.90;;;;;;5046831;28;20686;-75
2022/03/18 04:30:01;;;;;;;;;;;0.80;99.90;;;;;;5042730;28;19931;-75
2022/03/18 04:32:28;;;;;;;;;;;0.80;99.90;;;;;;5043746;28;20003;-75
2022/03/18 04:34:55;;;;;;;;;;;0.80;99.90;;;;;;5047870;28;20255;-75
2022/03/18 04:37:21;;;;;;;;;;;0.80;99.90;;;;;;5041513;28;19931;-76
2022/03/18 04:39:49;;;;;;;;;;;0.80;99.90;;;;;;5041492;28;19932;-75
2022/03/18 04:42:16;;;;;;;;;;;0.90;99.90;;;;;;5041192;28;20318;-76
2022/03/18 04:44:43;;;;;;;;;;;0.80;99.90;;;;;;5041533;28;19924;-75
2022/03/18 04:47:10;;;;;;;;;;;0.80;99.90;;;;;;5046448;28;19924;-76
2022/03/18 04:49:37;;;;;;;;;;;0.80;99.90;;;;;;5045488;28;19936;-75
2022/03/18 04:52:04;;;;;;;;;;;0.80;99.90;;;;;;5040172;28;20024;-75
2022/03/18 04:54:30;;;;;;;;;;;0.80;99.90;;;;;;5041283;28;19933;-76
2022/03/18 04:57:15;;;;;;;;;;;0.80;99.90;;;;;;5048621;28;19935;-76
2022/03/18 04:59:42;;;;;;;;;;;0.80;99.90;;;;;;5044782;28;20383;-76
2022/03/18 05:02:10;;;;;;;;;;;0.80;99.90;;;;;;5041408;28;20394;-75
2022/03/18 05:04:37;;;;;;;;;;;0.80;99.90;;;;;;5043019;28;20307;-75
2022/03/18 05:07:03;;;;;;;;;;;0.80;99.90;;;;;;5044212;28;19936;-76
2022/03/18 05:09:30;;;;;;;;;;;0.70;99.90;;;;;;5044483;28;19925;-76
2022/03/18 05:11:58;;;;;;;;;;;0.70;99.90;;;;;;5045801;28;19928;-76
2022/03/18 05:14:25;;;;;;;;;;;0.70;99.90;;;;;;5046991;28;19936;-77
2022/03/18 05:16:52;;;;;;;;;;;0.60;99.90;;;;;;5052792;28;19931;-78
2022/03/18 05:19:18;;;;;;;;;;;0.70;99.90;;;;;;5047116;28;19972;-76
2022/03/18 05:21:45;;;;;;;;;;;0.70;99.90;;;;;;5043802;28;19937;-76
2022/03/18 05:24:12;;;;;;;;;;;0.80;99.90;;;;;;5041742;28;20480;-76
2022/03/18 05:26:40;;;;;;;;;;;0.80;99.90;;;;;;5042246;28;19925;-77
2022/03/18 05:29:08;;;;;;;;;;;0.80;99.90;;;;;;5048803;28;19929;-77
2022/03/18 05:31:36;;;;;;;;;;;0.80;99.90;;;;;;5053090;28;19935;-76
2022/03/18 05:34:02;;;;;;;;;;;0.80;99.90;;;;;;5051483;28;20033;-76
2022/03/18 05:36:29;;;;;;;;;;;0.80;99.90;;;;;;5045106;28;19925;-76
2022/03/18 05:38:56;;;;;;;;;;;0.80;99.90;;;;;;5040512;28;20397;-76
2022/03/18 05:41:23;;;;;;;;;;;0.80;99.90;;;;;;5040143;28;20031;-76
2022/03/18 05:43:50;;;;;;;;;;;0.70;99.90;;;;;;5043375;28;20402;-76
2022/03/18 05:46:18;;;;;;;;;;;0.60;99.90;;;;;;5042881;28;19964;-76
2022/03/18 05:48:44;;;;;;;;;;;0.50;99.90;;;;;;5044188;28;19933;-76
2022/03/18 05:51:11;;;;;;;;;;;0.50;99.90;;;;;;5040991;28;20015;-76
2022/03/18 05:53:38;;;;;;;;;;;0.50;99.90;;;;;;5045941;28;19937;-76
2022/03/18 05:58:49;;;;;;;;;;;0.60;99.90;;;;;;5043663;28;19947;-75
2022/03/18 06:01:16;;;;;;;;;;;0.70;99.90;;;;;;5051605;28;19964;-76
2022/03/18 06:03:44;;;;;;;;;;;0.70;99.90;;;;;;5041681;28;19925;-77
2022/03/18 06:06:10;;;;;;;;;;;0.80;99.90;;;;;;5040472;28;19925;-76
2022/03/18 06:14:08;;;;;;;;;;;0.80;99.90;;;;;;5039619;28;19977;-75
2022/03/18 06:16:36;;;;;;;;;;;0.70;99.90;;;;;;5048148;28;19925;-76
2022/03/18 06:19:04;;;;;;;;;;;0.70;99.90;;;;;;5048922;28;19978;-76
2022/03/18 06:21:31;;;;;;;;;;;0.70;99.90;;;;;;5038618;28;20745;-77
2022/03/18 06:23:57;;;;;;;;;;;0.80;99.90;;;;;;5045531;28;19979;-76
2022/03/18 06:26:24;;;;;;;;;;;0.80;99.90;;;;;;5052972;28;19947;-77
2022/03/18 06:28:51;;;;;;;;;;;0.90;99.90;;;;;;5047972;28;20023;-76
2022/03/18 06:31:18;;;;;;;;;;;0.90;99.90;;;;;;5045456;28;20056;-76
2022/03/18 06:33:46;;;;;;;;;;;1.10;99.90;;;;;;5044863;28;19931;-75
2022/03/18 06:36:14;;;;;;;;;;;1.20;99.90;;;;;;5042891;28;19986;-76
2022/03/18 06:38:41;;;;;;;;;;;1.10;99.90;;;;;;5038072;28;19931;-76
2022/03/18 06:41:08;;;;;;;;;;;1.20;99.90;;;;;;5041536;28;19968;-76
2022/03/18 06:43:35;;;;;;;;;;;1.30;99.90;;;;;;5044740;28;20348;-75
2022/03/18 06:46:02;;;;;;;;;;;1.50;99.90;;;;;;5035014;28;19987;-74
2022/03/18 06:48:28;;;;;;;;;;;1.50;99.90;;;;;;5032632;28;19943;-74
2022/03/18 06:50:55;;;;;;;;;;;1.60;99.90;;;;;;5043678;28;19932;-74
2022/03/18 06:53:23;;;;;;;;;;;1.70;99.90;;;;;;5039083;28;19947;-74
2022/03/18 06:55:52;;;;;;;;;;;1.80;99.90;;;;;;5036447;28;19925;-75
2022/03/18 06:58:19;;;;;;;;;;;1.80;99.90;;;;;;5040493;28;20036;-74
2022/03/18 07:00:46;;;;;;;;;;;2.00;99.90;;;;;;5034912;28;20016;-75
2022/03/18 07:03:13;;;;;;;;;;;2.10;99.90;;;;;;5031581;28;19925;-75
2022/03/18 07:05:40;;;;;;;;;;;2.20;99.90;;;;;;5038943;28;19925;-76
2022/03/18 07:08:07;;;;;;;;;;;2.30;99.90;;;;;;5047528;28;20361;-75
2022/03/18 07:10:35;;;;;;;;;;;2.50;99.90;;;;;;5037634;28;19932;-76
2022/03/18 07:13:01;;;;;;;;;;;2.60;99.90;;;;;;5041879;28;19996;-78
2022/03/18 07:15:31;;;;;;;;;;;2.70;99.90;;;;;;5058971;28;20043;-77
2022/03/18 07:17:59;;;;;;;;;;;2.80;99.90;;;;;;5055920;28;20364;-76
2022/03/18 07:20:26;;;;;;;;;;;2.90;99.90;;;;;;5047016;28;19971;-75
2022/03/18 07:23:03;;;;;;;;;;;3.00;99.90;;;;;;5053891;28;19932;-78
2022/03/18 07:25:32;;;;;;;;;;;3.10;99.90;;;;;;5072390;28;19955;-78
2022/03/18 07:28:01;;;;;;;;;;;3.20;99.90;;;;;;5072664;28;20012;-75
2022/03/18 07:30:27;;;;;;;;;;;3.30;99.90;;;;;;5055002;28;20015;-74
2022/03/18 07:32:54;;;;;;;;;;;3.40;99.90;;;;;;5036370;28;19933;-75
2022/03/18 07:35:21;;;;;;;;;;;3.40;99.90;;;;;;5043665;28;19930;-75
2022/03/18 07:37:48;;;;;;;;;;;3.50;99.90;;;;;;5042091;28;19932;-75
2022/03/18 07:40:16;;;;;;;;;;;3.60;99.90;;;;;;5047935;28;19933;-75
2022/03/18 07:42:45;;;;;;;;;;;3.70;99.90;;;;;;5057807;28;19925;-75
2022/03/18 07:45:17;;;;;;;;;;;3.90;99.90;;;;;;5039528;28;19987;-75
2022/03/18 07:47:43;;;;;;;;;;;4.20;99.90;;;;;;5058585;28;20020;-75
2022/03/18 07:50:10;;;;;;;;;;;6.20;99.90;;;;;;5052527;28;19932;-73
2022/03/18 07:52:37;;;;;;;;;;;7.60;99.90;;;;;;5051846;28;19931;-73
2022/03/18 07:55:04;;;;;;;;;;;8.50;99.90;;;;;;5048640;28;19935;-73
2022/03/18 07:57:30;;;;;;;;;;;9.00;99.60;;;;;;5043776;28;19980;-74
2022/03/18 07:59:57;;;;;;;;;;;8.70;98.90;;;;;;5040559;28;19925;-74
2022/03/18 08:02:25;;;;;;;;;;;8.80;98.40;;;;;;5043726;28;20007;-73
2022/03/18 08:04:52;;;;;;;;;;;9.80;98.20;;;;;;5053262;28;19924;-73
2022/03/18 08:07:19;;;;;;;;;;;10.40;93.60;;;;;;5045756;28;19929;-73
2022/03/18 08:09:46;;;;;;;;;;;11.50;92.00;;;;;;5048152;28;19971;-73
2022/03/18 08:12:13;;;;;;;;;;;12.00;90.50;;;;;;5047888;28;19979;-74
2022/03/18 08:14:40;;;;;;;;;;;11.70;88.50;;;;;;5040469;28;19936;-72
2022/03/18 08:17:07;;;;;;;;;;;12.30;81.20;;;;;;5050194;28;19931;-72
2022/03/18 08:19:35;;;;;;;;;;;12.20;83.30;;;;;;5046236;28;19924;-72
2022/03/18 08:22:04;;;;;;;;;;;12.60;79.70;;;;;;5044461;28;19932;-72
2022/03/18 08:24:31;;;;;;;;;;;12.30;78.10;;;;;;5048939;28;19929;-70
2022/03/18 08:26:57;;;;;;;;;;;12.50;77.70;;;;;;5043074;28;19925;-70
2022/03/18 08:29:24;;;;;;;;;;;12.60;73.40;;;;;;5047955;28;20020;-70
2022/03/18 08:31:51;;;;;;;;;;;11.80;76.60;;;;;;5049075;28;19931;-71
2022/03/18 08:34:17;;;;;;;;;;;11.70;77.60;;;;;;5047959;28;20012;-70
2022/03/18 08:36:45;;;;;;;;;;;12.20;75.30;;;;;;5033164;28;20186;-70
2022/03/18 08:39:12;;;;;;;;;;;11.90;76.40;;;;;;5052178;28;19950;-70
2022/03/18 08:41:39;;;;;;;;;;;12.00;77.30;;;;;;5046900;28;19947;-70
2022/03/18 08:44:05;;;;;;;;;;;11.00;79.30;;;;;;5039079;28;20307;-69
2022/03/18 08:46:34;;;;;;;;;;;11.40;79.00;;;;;;5054637;28;19929;-69
2022/03/18 08:49:01;;;;;;;;;;;13.00;73.20;;;;;;5036501;28;19933;-70
2022/03/18 08:51:28;;;;;;;;;;;14.80;69.90;;;;;;5039647;28;19929;-70
2022/03/18 08:53:56;;;;;;;;;;;14.80;63.40;;;;;;5041796;28;19932;-70
2022/03/18 08:56:23;;;;;;;;;;;14.70;62.60;;;;;;5052194;28;19925;-70
2022/03/18 08:58:52;;;;;;;;;;;14.00;62.70;;;;;;5046670;28;20006;-72
2022/03/18 09:01:18;;;;;;;;;;;14.30;60.50;;;;;;5051251;28;19993;-69
2022/03/18 09:03:45;;;;;;;;;;;13.30;62.90;;;;;;5034151;28;20056;-70
2022/03/18 09:06:12;;;;;;;;;;;13.60;64.30;;;;;;5049847;28;19925;-69
2022/03/18 09:08:39;;;;;;;;;;;12.20;63.60;;;;;;5027174;28;19936;-74
2022/03/18 09:11:08;;;;;;;;;;;11.30;64.10;;;;;;5040175;28;20372;-69
2022/03/18 09:13:35;;;;;;;;;;;11.40;65.60;;;;;;5037411;28;19925;-69
2022/03/18 09:16:02;;;;;;;;;;;12.00;61.70;;;;;;5042735;28;19925;-70
2022/03/18 09:18:29;;;;;;;;;;;12.40;60.20;;;;;;5045755;28;19925;-69
2022/03/18 09:20:55;;;;;;;;;;;12.10;61.30;;;;;;5043989;28;19929;-70
2022/03/18 09:23:22;;;;;;;;;;;12.00;60.20;;;;;;5047732;28;20455;-71
2022/03/18 09:25:49;;;;;;;;;;;12.00;59.60;;;;;;5045525;28;20323;-69
2022/03/18 09:28:17;;;;;;;;;;;11.50;59.00;;;;;;5049060;28;20018;-68
2022/03/18 09:30:44;;;;;;;;;;;11.30;60.30;;;;;;5051136;28;19933;-69
2022/03/18 09:33:11;;;;;;;;;;;11.70;58.80;;;;;;5049998;28;19939;-70
2022/03/18 09:35:38;;;;;;;;;;;12.20;58.20;;;;;;5041254;28;19925;-69
2022/03/18 09:38:05;;;;;;;;;;;11.40;56.80;;;;;;5042962;28;20016;-69
2022/03/18 09:40:32;;;;;;;;;;;11.50;57.60;;;;;;5045483;28;19947;-70
2022/03/18 09:42:59;;;;;;;;;;;12.10;57.20;;;;;;5042370;28;19925;-70
2022/03/18 09:45:30;;;;;;;;;;;11.50;53.40;;;;;;5039801;28;20627;-70
2022/03/18 09:47:57;;;;;;;;;;;11.30;53.90;;;;;;5036695;28;19953;-70
2022/03/18 09:50:24;;;;;;;;;;;11.10;55.00;;;;;;5036742;28;19988;-69
2022/03/18 09:52:51;;;;;;;;;;;11.20;54.70;;;;;;5041216;28;19929;-70
2022/03/18 09:55:18;;;;;;;;;;;11.30;53.20;;;;;;5036631;28;19973;-71
2022/03/18 09:57:44;;;;;;;;;;;11.10;51.40;;;;;;5048057;28;20380;-69
2022/03/18 10:00:12;;;;;;;;;;;11.60;51.50;;;;;;5041010;28;20027;-69
2022/03/18 10:02:40;;;;;;;;;;;11.70;51.10;;;;;;5043043;28;19926;-69
2022/03/18 10:05:10;;;;;;;;;;;12.10;49.40;;;;;;5034104;28;19965;-69
2022/03/18 10:07:37;;;;;;;;;;;12.30;50.50;;;;;;5045327;28;19939;-68
2022/03/18 10:10:07;;;;;;;;;;;12.20;49.40;;;;;;5046692;28;19971;-68
2022/03/18 10:12:35;;;;;;;;;;;11.70;50.30;;;;;;5047393;28;20005;-70
2022/03/18 10:15:09;;;;;;;;;;;11.90;50.00;;;;;;5045970;28;19925;-69
2022/03/18 10:17:44;;;;;;;;;;;11.20;50.60;;;;;;5042205;28;19925;-69
2022/03/18 10:20:24;;;;;;;;;;;11.10;51.80;;;;;;5041310;28;19932;-70
2022/03/18 10:22:52;;;;;;;;;;;11.00;53.00;;;;;;5041731;28;19929;-69
2022/03/18 10:25:38;;;;;;;;;;;11.00;53.10;;;;;;5046100;28;19929;-70
2022/03/18 10:28:05;;;;;;;;;;;10.90;52.40;;;;;;5035828;28;20331;-73
2022/03/18 10:30:32;;;;;;;;;;;11.00;52.90;;;;;;5045446;28;20019;-71
2022/03/18 10:33:01;;;;;;;;;;;10.80;54.00;;;;;;5042169;28;20288;-69
2022/03/18 10:38:26;;;;;;;;;;;11.10;54.00;;;;;;5037581;28;20390;-71
2022/03/18 10:40:53;;;;;;;;;;;11.30;53.50;;;;;;5047461;28;20327;-71
2022/03/18 10:43:20;;;;;;;;;;;11.40;53.90;;;;;;5046588;28;19925;-72
2022/03/18 10:45:59;;;;;;;;;;;11.40;53.40;;;;;;5038888;28;19933;-71
2022/03/18 10:48:27;;;;;;;;;;;11.50;51.90;;;;;;5043786;28;20023;-71
2022/03/18 10:51:01;;;;;;;;;;;11.30;52.40;;;;;;5044893;28;19925;-73
2022/03/18 10:53:30;;;;;;;;;;;11.30;52.00;;;;;;5045336;28;20019;-72
2022/03/18 10:55:59;;;;;;;;;;;11.80;53.00;;;;;;5049035;28;19925;-71
2022/03/18 10:58:29;;;;;;;;;;;11.80;52.90;;;;;;5037433;28;19932;-73
2022/03/18 11:00:58;;;;;;;;;;;11.90;51.50;;;;;;5039418;28;19932;-73
2022/03/18 11:03:24;;;;;;;;;;;11.80;51.70;;;;;;5036741;28;19932;-73
2022/03/18 11:05:53;;;;;;;;;;;11.90;51.70;;;;;;5048745;28;19943;-71
2022/03/18 11:08:22;;;;;;;;;;;11.90;51.10;;;;;;5034607;28;19925;-72
2022/03/18 11:13:35;;;;;;;;;;;11.80;50.80;;;;;;5037787;28;19932;-71
2022/03/18 11:16:02;;;;;;;;;;;12.00;51.10;;;;;;5041862;28;19935;-70
2022/03/18 11:18:29;;;;;;;;;;;11.90;51.30;;;;;;5036367;28;19980;-71
2022/03/18 11:20:57;;;;;;;;;;;11.80;51.30;;;;;;5040588;28;19925;-71
2022/03/18 11:23:24;;;;;;;;;;;12.10;51.00;;;;;;5041770;28;19929;-74
2022/03/18 11:25:51;;;;;;;;;;;12.10;50.70;;;;;;5051754;28;20403;-70
2022/03/18 11:28:18;;;;;;;;;;;12.20;51.40;;;;;;5030358;28;19925;-70
2022/03/18 11:30:47;;;;;;;;;;;11.90;51.70;;;;;;5037670;28;19932;-70
2022/03/18 11:33:21;;;;;;;;;;;12.20;51.00;;;;;;5033956;28;19948;-70
2022/03/18 11:36:06;;;;;;;;;;;12.50;50.10;;;;;;5040897;28;19925;-70
2022/03/18 11:39:06;;;;;;;;;;;12.20;50.00;;;;;;5034096;28;19931;-71
2022/03/18 11:41:47;;;;;;;;;;;12.10;49.60;;;;;;4988258;28;19926;-70
2022/03/18 11:44:29;;;;;;;;;;;12.20;49.40;;;;;;4979807;28;19964;-70
2022/03/18 11:46:55;;;;;;;;;;;12.50;49.30;;;;;;5021668;28;19995;-70
2022/03/18 11:49:32;;;;;;;;;;;12.40;48.50;;;;;;5048603;28;19975;-69
2022/03/18 11:51:59;;;;;;;;;;;12.50;49.10;;;;;;5044092;28;19929;-70
2022/03/18 11:54:27;;;;;;;;;;;12.60;47.50;;;;;;5050749;28;19932;-70
2022/03/18 11:56:57;;;;;;;;;;;12.80;47.00;;;;;;5047480;28;19933;-70
2022/03/18 11:59:38;;;;;;;;;;;12.70;46.00;;;;;;5040661;28;19928;-70
2022/03/18 12:02:05;;;;;;;;;;;12.80;46.00;;;;;;5050892;28;20098;-70
2022/03/18 12:04:39;;;;;;;;;;;12.80;46.10;;;;;;5045648;28;20020;-69
2022/03/18 12:07:16;;;;;;;;;;;12.70;45.50;;;;;;5054559;28;19964;-69
2022/03/18 12:09:56;;;;;;;;;;;12.70;47.50;;;;;;5040329;28;19925;-72
2022/03/18 12:12:25;;;;;;;;;;;12.90;46.60;;;;;;5051484;28;19932;-70
2022/03/18 12:14:53;;;;;;;;;;;12.90;46.50;;;;;;5045693;28;19936;-70
2022/03/18 12:17:21;;;;;;;;;;;13.10;46.40;;;;;;5049522;28;19970;-71
2022/03/18 12:19:49;;;;;;;;;;;12.80;46.30;;;;;;5042103;28;20363;-70
2022/03/18 12:22:16;;;;;;;;;;;13.10;45.00;;;;;;5046482;28;19933;-71
2022/03/18 12:24:42;;;;;;;;;;;13.00;43.60;;;;;;5045284;28;20400;-75
2022/03/18 12:27:09;;;;;;;;;;;13.10;44.20;;;;;;5047755;28;20280;-70
2022/03/18 12:29:37;;;;;;;;;;;12.90;43.10;;;;;;5048582;28;19924;-70
2022/03/18 12:32:05;;;;;;;;;;;13.10;44.50;;;;;;5044032;28;20083;-70
2022/03/18 12:34:31;;;;;;;;;;;13.10;44.00;;;;;;5054245;28;19929;-72
2022/03/18 12:36:58;;;;;;;;;;;13.10;43.90;;;;;;5059442;28;19956;-71
2022/03/18 12:39:26;;;;;;;;;;;13.10;43.70;;;;;;5042454;28;19926;-72
2022/03/18 12:42:04;;;;;;;;;;;13.20;45.40;;;;;;5042386;28;20380;-69
2022/03/18 12:44:31;;;;;;;;;;;13.30;44.30;;;;;;5051067;28;19933;-70
2022/03/18 12:46:59;;;;;;;;;;;13.50;43.50;;;;;;5046448;28;19935;-69
2022/03/18 12:49:31;;;;;;;;;;;13.20;42.50;;;;;;5043947;28;20001;-71
2022/03/18 12:51:58;;;;;;;;;;;13.20;43.50;;;;;;5052884;28;20273;-69
2022/03/18 12:54:24;;;;;;;;;;;13.40;41.80;;;;;;5045279;28;20398;-69
2022/03/18 12:56:51;;;;;;;;;;;13.20;41.70;;;;;;5052254;28;20398;-70
2022/03/18 12:59:18;;;;;;;;;;;13.60;43.00;;;;;;5042750;28;19933;-70
2022/03/18 13:01:51;;;;;;;;;;;13.50;41.70;;;;;;5042517;28;19925;-70
2022/03/18 13:04:20;;;;;;;;;;;13.30;41.60;;;;;;5041506;28;20411;-69
2022/03/18 13:06:47;;;;;;;;;;;13.60;43.10;;;;;;5040288;28;19932;-70
2022/03/18 13:09:15;;;;;;;;;;;13.50;41.10;;;;;;5038356;28;21320;-70
2022/03/18 13:11:42;;;;;;;;;;;13.60;42.10;;;;;;5047494;28;19971;-71
2022/03/18 13:14:09;;;;;;;;;;;13.90;41.50;;;;;;5034038;28;19990;-70
2022/03/18 13:16:36;;;;;;;;;;;13.90;40.60;;;;;;5042937;28;19925;-72
2022/03/18 13:19:03;;;;;;;;;;;13.70;41.90;;;;;;5039230;28;20398;-71
2022/03/18 13:21:39;;;;;;;;;;;13.60;41.60;;;;;;5042846;28;19924;-70
2022/03/18 13:24:07;;;;;;;;;;;13.80;42.80;;;;;;5041774;28;19934;-70
2022/03/18 13:26:34;;;;;;;;;;;13.80;42.20;;;;;;5051581;28;20338;-70
2022/03/18 13:29:00;;;;;;;;;;;13.90;41.40;;;;;;5043523;28;19955;-69
2022/03/18 13:34:11;;;;;;;;;;;13.80;41.50;;;;;;5046961;28;20898;-70
2022/03/18 13:36:39;;;;;;;;;;;13.90;40.60;;;;;;5050811;28;20015;-70
2022/03/18 13:39:08;;;;;;;;;;;14.00;39.10;;;;;;5046955;28;19925;-70
2022/03/18 13:41:44;;;;;;;;;;;14.30;41.40;;;;;;5046840;28;20004;-70
2022/03/18 13:44:11;;;;;;;;;;;14.10;39.70;;;;;;5055343;28;20019;-70
2022/03/18 13:46:38;;;;;;;;;;;13.90;39.30;;;;;;5041743;28;20012;-69
2022/03/18 13:49:14;;;;;;;;;;;13.90;41.00;;;;;;5050785;28;20024;-70
2022/03/18 13:51:45;;;;;;;;;;;13.90;40.90;;;;;;5047143;28;19943;-70
2022/03/18 13:54:12;;;;;;;;;;;14.00;40.50;;;;;;5047033;28;19971;-70
2022/03/18 13:56:41;;;;;;;;;;;14.20;41.10;;;;;;5046817;28;19932;-71
2022/03/18 13:59:12;;;;;;;;;;;14.30;40.90;;;;;;5047547;28;19925;-69
2022/03/18 14:01:39;;;;;;;;;;;14.30;40.30;;;;;;5046628;28;20295;-70
2022/03/18 14:04:06;;;;;;;;;;;14.40;39.20;;;;;;5051454;28;19931;-71
2022/03/18 14:06:47;;;;;;;;;;;14.30;40.00;;;;;;5045910;28;20315;-71
2022/03/18 14:09:15;;;;;;;;;;;14.20;39.10;;;;;;5044985;28;19984;-71
2022/03/18 14:14:29;;;;;;;;;;;14.00;40.20;;;;;;5048914;28;19935;-69
2022/03/18 14:17:12;;;;;;;;;;;14.20;40.90;;;;;;5039164;28;19929;-70
2022/03/18 14:19:44;;;;;;;;;;;14.10;40.80;;;;;;5041784;28;20319;-71
2022/03/18 14:22:10;;;;;;;;;;;14.30;40.10;;;;;;5031736;28;19976;-71
2022/03/18 14:24:38;;;;;;;;;;;14.40;40.30;;;;;;5041273;28;20035;-71
2022/03/18 14:27:07;;;;;;;;;;;14.40;40.00;;;;;;5032516;28;20008;-70
2022/03/18 14:29:38;;;;;;;;;;;14.30;40.80;;;;;;5046485;28;19947;-70
2022/03/18 14:32:07;;;;;;;;;;;14.30;41.00;;;;;;5044287;28;19980;-70
2022/03/18 14:34:34;;;;;;;;;;;14.30;40.70;;;;;;5042244;28;19924;-71
2022/03/18 14:37:00;;;;;;;;;;;14.50;40.60;;;;;;5050757;28;19925;-71
2022/03/18 14:39:29;;;;;;;;;;;14.50;40.90;;;;;;5054074;28;21379;-70
2022/03/18 14:41:57;;;;;;;;;;;14.40;40.80;;;;;;5044972;28;20009;-70
2022/03/18 14:44:24;;;;;;;;;;;14.20;40.20;;;;;;5042862;28;19931;-69
2022/03/18 14:46:56;;;;;;;;;;;14.40;41.50;;;;;;5045062;28;19979;-71
2022/03/18 14:49:23;;;;;;;;;;;14.20;40.40;;;;;;5046228;28;19933;-70
2022/03/18 14:51:50;;;;;;;;;;;14.30;40.50;;;;;;5047202;28;19978;-70
2022/03/18 14:56:17;;;;;;;;;;;14.40;41.00;;;;;;5041075;28;19929;-69
2022/03/18 14:57:04;;;;;;;;;;;14.50;40.10;;;;;;5032789;28;19925;-70